sensor_id;sensor_type;location;lat;lon;timestamp;pressure;altitude;pressure_sealevel;temperature;humidity
56713;BME280;42589;45.536;9.032;2022-10-16T00:00:52;100096.63;;;25.35;45.17
56713;BME280;42589;45.536;9.032;2022-10-16T00:03:52;100096.44;;;25.25;44.79
56713;BME280;42589;45.536;9.032;2022-10-16T00:06:53;100098.94;;;25.03;45.91
56713;BME280;42589;45.536;9.032;2022-10-16T00:09:54;100091.19;;;25.35;44.77
56713;BME280;42589;45.536;9.032;2022-10-16T00:12:54;100101.47;;;25.33;44.70
56713;BME280;42589;45.536;9.032;2022-10-16T00:15:58;100091.03;;;25.42;44.79
56713;BME280;42589;45.536;9.032;2022-10-16T00:18:59;100099.31;;;25.47;44.53
56713;BME280;42589;45.536;9.032;2022-10-16T00:22:00;100098.53;;;25.35;44.91
56713;BME280;42589;45.536;9.032;2022-10-16T00:25:00;100094.75;;;25.36;44.77
56713;BME280;42589;45.536;9.032;2022-10-16T00:28:01;100095.91;;;25.40;45.08
56713;BME280;42589;45.536;9.032;2022-10-16T00:31:06;100086.44;;;25.42;44.90
56713;BME280;42589;45.536;9.032;2022-10-16T00:34:06;100094.84;;;25.41;44.73
56713;BME280;42589;45.536;9.032;2022-10-16T00:37:07;100090.41;;;25.52;44.50
56713;BME280;42589;45.536;9.032;2022-10-16T00:40:08;100097.59;;;25.29;44.98
56713;BME280;42589;45.536;9.032;2022-10-16T00:46:29;100095.75;;;25.06;45.26
56713;BME280;42589;45.536;9.032;2022-10-16T00:49:32;100102.84;;;24.95;45.48
56713;BME280;42589;45.536;9.032;2022-10-16T00:52:33;100102.03;;;25.18;44.95
56713;BME280;42589;45.536;9.032;2022-10-16T00:55:34;100095.41;;;25.02;45.23
56713;BME280;42589;45.536;9.032;2022-10-16T00:58:34;100098.81;;;25.21;45.47
56713;BME280;42589;45.536;9.032;2022-10-16T01:01:35;100096.66;;;25.12;44.87
56713;BME280;42589;45.536;9.032;2022-10-16T01:04:39;100093.41;;;24.86;45.51
56713;BME280;42589;45.536;9.032;2022-10-16T01:10:46;100098.69;;;25.28;45.22
56713;BME280;42589;45.536;9.032;2022-10-16T01:13:53;100094.44;;;25.09;45.58
56713;BME280;42589;45.536;9.032;2022-10-16T01:17:04;100104.72;;;25.07;45.90
56713;BME280;42589;45.536;9.032;2022-10-16T01:29:56;100089.38;;;25.00;45.60
56713;BME280;42589;45.536;9.032;2022-10-16T01:33:01;100087.59;;;23.89;47.77
56713;BME280;42589;45.536;9.032;2022-10-16T01:36:05;100089.09;;;24.50;47.31
56713;BME280;42589;45.536;9.032;2022-10-16T01:39:09;100084.22;;;24.40;47.29
56713;BME280;42589;45.536;9.032;2022-10-16T01:42:16;100090.59;;;24.81;46.36
56713;BME280;42589;45.536;9.032;2022-10-16T01:45:19;100087.25;;;25.02;45.69
56713;BME280;42589;45.536;9.032;2022-10-16T01:48:20;100087.66;;;24.59;46.49
56713;BME280;42589;45.536;9.032;2022-10-16T01:51:22;100092.84;;;24.84;46.27
56713;BME280;42589;45.536;9.032;2022-10-16T01:54:24;100086.19;;;24.92;45.96
56713;BME280;42589;45.536;9.032;2022-10-16T01:57:27;100097.47;;;24.72;46.20
56713;BME280;42589;45.536;9.032;2022-10-16T02:00:30;100103.59;;;24.79;46.22
56713;BME280;42589;45.536;9.032;2022-10-16T02:03:31;100104.06;;;24.88;45.82
56713;BME280;42589;45.536;9.032;2022-10-16T02:06:32;100099.81;;;24.80;45.96
56713;BME280;42589;45.536;9.032;2022-10-16T02:09:33;100099.66;;;24.98;46.17
56713;BME280;42589;45.536;9.032;2022-10-16T02:12:35;100098.94;;;25.03;45.08
56713;BME280;42589;45.536;9.032;2022-10-16T02:15:37;100113.06;;;24.53;46.32
56713;BME280;42589;45.536;9.032;2022-10-16T02:18:38;100109.63;;;24.81;46.38
56713;BME280;42589;45.536;9.032;2022-10-16T02:21:40;100099.91;;;24.85;45.59
56713;BME280;42589;45.536;9.032;2022-10-16T02:24:52;100105.91;;;24.99;45.33
56713;BME280;42589;45.536;9.032;2022-10-16T02:27:57;100098.28;;;24.72;46.19
56713;BME280;42589;45.536;9.032;2022-10-16T02:31:01;100097.28;;;25.14;45.14
56713;BME280;42589;45.536;9.032;2022-10-16T02:34:03;100107.19;;;25.08;45.04
56713;BME280;42589;45.536;9.032;2022-10-16T02:37:05;100113.16;;;24.93;45.09
56713;BME280;42589;45.536;9.032;2022-10-16T02:40:06;100110.47;;;24.70;45.77
56713;BME280;42589;45.536;9.032;2022-10-16T02:43:07;100111.41;;;24.64;45.67
56713;BME280;42589;45.536;9.032;2022-10-16T02:46:09;100107.47;;;24.83;45.78
56713;BME280;42589;45.536;9.032;2022-10-16T02:49:09;100116.34;;;24.90;45.23
56713;BME280;42589;45.536;9.032;2022-10-16T02:52:09;100121.13;;;25.12;44.98
56713;BME280;42589;45.536;9.032;2022-10-16T02:55:10;100113.41;;;24.33;46.34
56713;BME280;42589;45.536;9.032;2022-10-16T02:58:11;100114.72;;;24.77;45.86
56713;BME280;42589;45.536;9.032;2022-10-16T03:01:11;100123.00;;;24.59;45.88
56713;BME280;42589;45.536;9.032;2022-10-16T03:04:12;100123.22;;;24.58;46.21
56713;BME280;42589;45.536;9.032;2022-10-16T03:07:13;100121.53;;;25.15;45.23
56713;BME280;42589;45.536;9.032;2022-10-16T03:10:14;100121.53;;;24.92;45.96
56713;BME280;42589;45.536;9.032;2022-10-16T03:13:15;100121.75;;;25.02;45.29
56713;BME280;42589;45.536;9.032;2022-10-16T03:16:15;100124.13;;;24.98;45.72
56713;BME280;42589;45.536;9.032;2022-10-16T03:19:16;100114.31;;;25.09;45.17
56713;BME280;42589;45.536;9.032;2022-10-16T03:22:17;100126.84;;;25.22;45.07
56713;BME280;42589;45.536;9.032;2022-10-16T03:25:18;100133.44;;;25.26;44.95
56713;BME280;42589;45.536;9.032;2022-10-16T03:28:19;100135.81;;;25.34;44.71
56713;BME280;42589;45.536;9.032;2022-10-16T03:31:19;100129.66;;;25.27;44.73
56713;BME280;42589;45.536;9.032;2022-10-16T03:34:20;100131.34;;;25.16;45.38
56713;BME280;42589;45.536;9.032;2022-10-16T03:37:20;100136.31;;;25.19;45.49
56713;BME280;42589;45.536;9.032;2022-10-16T03:40:21;100138.44;;;25.06;45.32
56713;BME280;42589;45.536;9.032;2022-10-16T03:43:22;100143.16;;;24.98;46.02
56713;BME280;42589;45.536;9.032;2022-10-16T03:46:23;100139.28;;;25.06;45.69
56713;BME280;42589;45.536;9.032;2022-10-16T03:49:23;100135.34;;;25.02;45.43
56713;BME280;42589;45.536;9.032;2022-10-16T03:52:24;100143.16;;;25.10;45.59
56713;BME280;42589;45.536;9.032;2022-10-16T03:55:25;100150.13;;;25.18;45.06
56713;BME280;42589;45.536;9.032;2022-10-16T03:58:25;100151.44;;;25.04;45.97
56713;BME280;42589;45.536;9.032;2022-10-16T04:01:26;100152.75;;;25.01;45.93
56713;BME280;42589;45.536;9.032;2022-10-16T04:04:26;100156.16;;;25.08;45.53
56713;BME280;42589;45.536;9.032;2022-10-16T04:07:27;100159.84;;;24.78;46.47
56713;BME280;42589;45.536;9.032;2022-10-16T04:10:28;100161.16;;;24.76;46.27
56713;BME280;42589;45.536;9.032;2022-10-16T04:13:29;100160.47;;;24.81;46.34
56713;BME280;42589;45.536;9.032;2022-10-16T04:16:30;100160.81;;;24.49;46.79
56713;BME280;42589;45.536;9.032;2022-10-16T04:19:30;100165.63;;;24.70;46.64
56713;BME280;42589;45.536;9.032;2022-10-16T04:22:32;100172.16;;;24.69;46.80
56713;BME280;42589;45.536;9.032;2022-10-16T04:25:32;100172.03;;;24.52;47.57
56713;BME280;42589;45.536;9.032;2022-10-16T04:28:33;100174.19;;;24.74;46.88
56713;BME280;42589;45.536;9.032;2022-10-16T04:31:33;100176.28;;;24.72;46.81
56713;BME280;42589;45.536;9.032;2022-10-16T04:34:34;100173.94;;;24.75;46.51
56713;BME280;42589;45.536;9.032;2022-10-16T04:37:34;100180.06;;;24.83;46.71
56713;BME280;42589;45.536;9.032;2022-10-16T04:40:36;100179.81;;;24.61;47.61
56713;BME280;42589;45.536;9.032;2022-10-16T04:43:36;100182.66;;;24.66;46.33
56713;BME280;42589;45.536;9.032;2022-10-16T04:46:36;100183.91;;;24.40;47.06
56713;BME280;42589;45.536;9.032;2022-10-16T04:49:37;100182.66;;;24.66;46.93
56713;BME280;42589;45.536;9.032;2022-10-16T04:52:38;100178.75;;;24.85;46.24
56713;BME280;42589;45.536;9.032;2022-10-16T04:55:39;100178.09;;;24.24;47.23
56713;BME280;42589;45.536;9.032;2022-10-16T04:58:39;100179.59;;;24.50;46.94
56713;BME280;42589;45.536;9.032;2022-10-16T05:01:40;100181.25;;;24.75;46.99
56713;BME280;42589;45.536;9.032;2022-10-16T05:04:41;100184.19;;;24.73;46.93
56713;BME280;42589;45.536;9.032;2022-10-16T05:07:42;100183.84;;;24.93;45.76
56713;BME280;42589;45.536;9.032;2022-10-16T05:10:43;100182.53;;;24.61;46.69
56713;BME280;42589;45.536;9.032;2022-10-16T05:13:44;100184.13;;;24.26;48.01
56713;BME280;42589;45.536;9.032;2022-10-16T05:16:45;100185.75;;;24.81;46.34
56713;BME280;42589;45.536;9.032;2022-10-16T05:19:45;100190.34;;;24.92;45.98
56713;BME280;42589;45.536;9.032;2022-10-16T05:22:46;100188.22;;;24.94;45.75
56713;BME280;42589;45.536;9.032;2022-10-16T05:25:54;100188.94;;;24.90;45.79
56713;BME280;42589;45.536;9.032;2022-10-16T05:28:55;100185.63;;;24.76;46.30
56713;BME280;42589;45.536;9.032;2022-10-16T05:31:56;100192.00;;;24.82;46.24
56713;BME280;42589;45.536;9.032;2022-10-16T05:34:56;100185.03;;;24.74;46.10
56713;BME280;42589;45.536;9.032;2022-10-16T05:37:59;100194.84;;;24.87;46.16
56713;BME280;42589;45.536;9.032;2022-10-16T05:41:00;100193.44;;;24.84;46.03
56713;BME280;42589;45.536;9.032;2022-10-16T05:44:03;100200.03;;;24.88;45.53
56713;BME280;42589;45.536;9.032;2022-10-16T05:47:04;100201.94;;;24.88;46.10
56713;BME280;42589;45.536;9.032;2022-10-16T05:50:05;100204.41;;;24.89;46.50
56713;BME280;42589;45.536;9.032;2022-10-16T05:53:06;100211.97;;;24.99;46.31
56713;BME280;42589;45.536;9.032;2022-10-16T05:56:07;100215.06;;;25.02;45.96
56713;BME280;42589;45.536;9.032;2022-10-16T05:59:09;100210.69;;;24.90;46.39
56713;BME280;42589;45.536;9.032;2022-10-16T06:02:12;100205.00;;;24.68;46.05
56713;BME280;42589;45.536;9.032;2022-10-16T06:05:13;100216.59;;;24.75;46.40
56713;BME280;42589;45.536;9.032;2022-10-16T06:08:14;100225.66;;;24.57;46.85
56713;BME280;42589;45.536;9.032;2022-10-16T06:11:19;100234.31;;;24.36;46.99
56713;BME280;42589;45.536;9.032;2022-10-16T06:14:20;100237.16;;;23.99;47.92
56713;BME280;42589;45.536;9.032;2022-10-16T06:17:21;100246.91;;;24.18;48.12
56713;BME280;42589;45.536;9.032;2022-10-16T06:20:24;100248.94;;;24.23;47.03
56713;BME280;42589;45.536;9.032;2022-10-16T06:23:28;100257.72;;;23.76;48.19
56713;BME280;42589;45.536;9.032;2022-10-16T06:26:29;100253.19;;;24.49;46.79
56713;BME280;42589;45.536;9.032;2022-10-16T06:29:30;100260.41;;;24.55;46.82
56713;BME280;42589;45.536;9.032;2022-10-16T06:32:31;100263.78;;;24.81;46.98
56713;BME280;42589;45.536;9.032;2022-10-16T06:35:32;100272.56;;;24.52;47.47
56713;BME280;42589;45.536;9.032;2022-10-16T06:38:34;100273.44;;;24.35;47.70
56713;BME280;42589;45.536;9.032;2022-10-16T06:41:35;100275.03;;;24.54;46.72
56713;BME280;42589;45.536;9.032;2022-10-16T06:44:36;100283.16;;;24.96;46.16
56713;BME280;42589;45.536;9.032;2022-10-16T06:47:36;100278.53;;;24.85;46.81
56713;BME280;42589;45.536;9.032;2022-10-16T06:50:36;100288.03;;;25.06;45.82
56713;BME280;42589;45.536;9.032;2022-10-16T06:53:38;100287.19;;;24.93;46.28
56713;BME280;42589;45.536;9.032;2022-10-16T06:56:39;100295.56;;;24.92;46.48
56713;BME280;42589;45.536;9.032;2022-10-16T06:59:40;100305.44;;;25.16;45.75
56713;BME280;42589;45.536;9.032;2022-10-16T07:02:41;100315.38;;;25.22;45.19
56713;BME280;42589;45.536;9.032;2022-10-16T07:05:41;100314.53;;;25.45;44.99
56713;BME280;42589;45.536;9.032;2022-10-16T07:08:47;100315.94;;;25.36;45.46
56713;BME280;42589;45.536;9.032;2022-10-16T07:11:47;100320.22;;;25.44;45.59
56713;BME280;42589;45.536;9.032;2022-10-16T07:14:48;100328.28;;;25.51;44.62
56713;BME280;42589;45.536;9.032;2022-10-16T07:17:49;100331.56;;;25.53;45.81
56713;BME280;42589;45.536;9.032;2022-10-16T07:20:50;100333.19;;;25.65;44.94
56713;BME280;42589;45.536;9.032;2022-10-16T07:23:50;100339.72;;;25.64;44.67
56713;BME280;42589;45.536;9.032;2022-10-16T07:26:51;100338.19;;;25.92;44.62
56713;BME280;42589;45.536;9.032;2022-10-16T07:29:52;100340.44;;;26.24;43.76
56713;BME280;42589;45.536;9.032;2022-10-16T07:32:52;100339.66;;;26.11;43.77
56713;BME280;42589;45.536;9.032;2022-10-16T07:35:53;100337.75;;;26.12;44.13
56713;BME280;42589;45.536;9.032;2022-10-16T07:38:54;100349.78;;;26.28;43.52
56713;BME280;42589;45.536;9.032;2022-10-16T07:41:58;100358.13;;;26.09;44.04
56713;BME280;42589;45.536;9.032;2022-10-16T07:44:58;100359.06;;;26.15;43.74
56713;BME280;42589;45.536;9.032;2022-10-16T07:47:59;100355.00;;;26.29;44.01
56713;BME280;42589;45.536;9.032;2022-10-16T07:51:01;100347.41;;;26.31;43.81
56713;BME280;42589;45.536;9.032;2022-10-16T07:54:01;100354.38;;;26.39;43.25
56713;BME280;42589;45.536;9.032;2022-10-16T07:57:01;100358.31;;;25.67;44.88
56713;BME280;42589;45.536;9.032;2022-10-16T08:00:02;100360.16;;;26.43;43.32
56713;BME280;42589;45.536;9.032;2022-10-16T08:03:04;100366.41;;;26.83;42.67
56713;BME280;42589;45.536;9.032;2022-10-16T08:09:23;100358.50;;;26.70;42.55
56713;BME280;42589;45.536;9.032;2022-10-16T08:12:25;100369.53;;;26.92;42.45
56713;BME280;42589;45.536;9.032;2022-10-16T08:15:25;100361.78;;;27.01;42.46
56713;BME280;42589;45.536;9.032;2022-10-16T08:18:26;100359.88;;;27.01;42.13
56713;BME280;42589;45.536;9.032;2022-10-16T08:21:27;100372.34;;;26.97;42.20
56713;BME280;42589;45.536;9.032;2022-10-16T08:24:27;100372.22;;;27.38;42.05
56713;BME280;42589;45.536;9.032;2022-10-16T08:27:31;100375.63;;;26.82;42.27
56713;BME280;42589;45.536;9.032;2022-10-16T08:30:32;100373.22;;;27.48;41.06
56713;BME280;42589;45.536;9.032;2022-10-16T08:33:33;100378.06;;;27.46;41.52
56713;BME280;42589;45.536;9.032;2022-10-16T08:36:35;100377.16;;;27.58;41.08
56713;BME280;42589;45.536;9.032;2022-10-16T08:39:35;100386.13;;;27.53;41.39
56713;BME280;42589;45.536;9.032;2022-10-16T08:42:42;100384.59;;;27.62;41.70
56713;BME280;42589;45.536;9.032;2022-10-16T08:49:05;100395.63;;;27.34;41.28
56713;BME280;42589;45.536;9.032;2022-10-16T08:52:11;100394.06;;;27.54;40.87
56713;BME280;42589;45.536;9.032;2022-10-16T08:55:46;100393.78;;;27.56;40.82
56713;BME280;42589;45.536;9.032;2022-10-16T08:58:40;100397.19;;;27.46;40.80
56713;BME280;42589;45.536;9.032;2022-10-16T09:01:54;100397.50;;;27.84;40.67
56713;BME280;42589;45.536;9.032;2022-10-16T09:27:13;100426.88;;;27.76;40.72
56713;BME280;42589;45.536;9.032;2022-10-16T09:30:18;100420.94;;;27.63;40.79
56713;BME280;42589;45.536;9.032;2022-10-16T09:33:21;100415.81;;;27.49;41.39
56713;BME280;42589;45.536;9.032;2022-10-16T09:36:22;100422.56;;;27.97;40.78
56713;BME280;42589;45.536;9.032;2022-10-16T09:39:24;100426.22;;;27.69;40.86
56713;BME280;42589;45.536;9.032;2022-10-16T09:42:34;100424.94;;;27.94;40.75
56713;BME280;42589;45.536;9.032;2022-10-16T09:45:36;100424.34;;;28.09;40.31
56713;BME280;42589;45.536;9.032;2022-10-16T09:48:39;100428.84;;;27.98;40.60
56713;BME280;42589;45.536;9.032;2022-10-16T09:51:43;100433.84;;;27.84;41.38
56713;BME280;42589;45.536;9.032;2022-10-16T09:54:55;100423.69;;;27.63;40.94
56713;BME280;42589;45.536;9.032;2022-10-16T09:57:56;100425.47;;;27.40;40.77
56713;BME280;42589;45.536;9.032;2022-10-16T10:00:56;100429.94;;;27.46;41.35
56713;BME280;42589;45.536;9.032;2022-10-16T10:03:57;100426.22;;;27.69;40.41
56713;BME280;42589;45.536;9.032;2022-10-16T10:07:02;100422.19;;;27.21;41.76
56713;BME280;42589;45.536;9.032;2022-10-16T10:10:04;100429.13;;;27.63;40.85
56713;BME280;42589;45.536;9.032;2022-10-16T10:13:14;100427.13;;;27.24;42.10
56713;BME280;42589;45.536;9.032;2022-10-16T10:16:23;100425.31;;;27.97;40.35
56713;BME280;42589;45.536;9.032;2022-10-16T10:19:24;100417.22;;;28.08;40.43
56713;BME280;42589;45.536;9.032;2022-10-16T10:22:26;100418.25;;;28.02;39.84
56713;BME280;42589;45.536;9.032;2022-10-16T10:28:41;100423.69;;;28.40;39.25
56713;BME280;42589;45.536;9.032;2022-10-16T10:54:28;100416.63;;;29.26;37.40
56713;BME280;42589;45.536;9.032;2022-10-16T11:10:18;100416.78;;;29.09;37.06
56713;BME280;42589;45.536;9.032;2022-10-16T11:13:26;100416.38;;;29.27;37.15
56713;BME280;42589;45.536;9.032;2022-10-16T11:16:28;100413.44;;;29.71;36.45
56713;BME280;42589;45.536;9.032;2022-10-16T11:22:36;100405.22;;;29.71;36.74
56713;BME280;42589;45.536;9.032;2022-10-16T11:25:42;100405.41;;;30.02;35.71
56713;BME280;42589;45.536;9.032;2022-10-16T11:28:50;100405.06;;;29.88;35.98
56713;BME280;42589;45.536;9.032;2022-10-16T11:31:53;100398.66;;;30.25;36.26
56713;BME280;42589;45.536;9.032;2022-10-16T11:35:00;100406.25;;;30.07;36.65
56713;BME280;42589;45.536;9.032;2022-10-16T11:38:03;100398.16;;;29.43;37.16
56713;BME280;42589;45.536;9.032;2022-10-16T11:41:17;100395.78;;;29.57;37.02
56713;BME280;42589;45.536;9.032;2022-10-16T11:44:32;100388.88;;;29.49;36.85
56713;BME280;42589;45.536;9.032;2022-10-16T11:50:38;100393.03;;;29.94;36.94
56713;BME280;42589;45.536;9.032;2022-10-16T11:56:41;100392.47;;;29.92;36.28
56713;BME280;42589;45.536;9.032;2022-10-16T11:59:46;100385.75;;;29.68;37.02
56713;BME280;42589;45.536;9.032;2022-10-16T12:09:15;100384.84;;;29.20;38.64
56713;BME280;42589;45.536;9.032;2022-10-16T12:15:35;100378.84;;;28.96;37.93
56713;BME280;42589;45.536;9.032;2022-10-16T12:18:36;100372.69;;;28.78;38.76
56713;BME280;42589;45.536;9.032;2022-10-16T12:21:37;100371.97;;;29.20;37.99
56713;BME280;42589;45.536;9.032;2022-10-16T12:24:39;100370.31;;;29.19;38.04
56713;BME280;42589;45.536;9.032;2022-10-16T12:27:43;100368.06;;;29.48;37.28
56713;BME280;42589;45.536;9.032;2022-10-16T12:30:52;100368.63;;;29.50;37.63
56713;BME280;42589;45.536;9.032;2022-10-16T12:33:59;100367.50;;;29.09;38.22
56713;BME280;42589;45.536;9.032;2022-10-16T12:37:36;100366.56;;;29.30;38.25
56713;BME280;42589;45.536;9.032;2022-10-16T12:40:30;100368.59;;;29.45;37.53
56713;BME280;42589;45.536;9.032;2022-10-16T12:46:37;100363.00;;;29.30;38.53
56713;BME280;42589;45.536;9.032;2022-10-16T12:49:38;100357.16;;;29.58;37.82
56713;BME280;42589;45.536;9.032;2022-10-16T12:52:48;100355.19;;;29.44;37.92
56713;BME280;42589;45.536;9.032;2022-10-16T13:17:21;100365.50;;;29.69;36.79
56713;BME280;42589;45.536;9.032;2022-10-16T13:20:31;100362.34;;;30.02;36.80
56713;BME280;42589;45.536;9.032;2022-10-16T13:29:59;100360.72;;;30.06;36.16
56713;BME280;42589;45.536;9.032;2022-10-16T13:33:02;100363.19;;;30.03;35.39
56713;BME280;42589;45.536;9.032;2022-10-16T13:36:03;100362.88;;;29.94;35.83
56713;BME280;42589;45.536;9.032;2022-10-16T13:39:10;100364.81;;;29.99;35.54
56713;BME280;42589;45.536;9.032;2022-10-16T13:42:14;100365.97;;;30.18;35.55
56713;BME280;42589;45.536;9.032;2022-10-16T13:45:22;100375.13;;;30.44;35.44
56713;BME280;42589;45.536;9.032;2022-10-16T13:48:23;100363.25;;;30.18;35.89
56713;BME280;42589;45.536;9.032;2022-10-16T13:51:24;100368.00;;;30.33;35.03
56713;BME280;42589;45.536;9.032;2022-10-16T13:54:26;100364.31;;;30.12;35.25
56713;BME280;42589;45.536;9.032;2022-10-16T13:57:26;100370.16;;;30.26;35.29
56713;BME280;42589;45.536;9.032;2022-10-16T14:00:27;100370.75;;;30.33;35.28
56713;BME280;42589;45.536;9.032;2022-10-16T14:03:32;100370.44;;;30.35;35.10
56713;BME280;42589;45.536;9.032;2022-10-16T14:06:36;100368.38;;;29.94;36.03
56713;BME280;42589;45.536;9.032;2022-10-16T14:09:40;100368.53;;;30.30;35.03
56713;BME280;42589;45.536;9.032;2022-10-16T14:12:41;100373.06;;;30.09;35.71
56713;BME280;42589;45.536;9.032;2022-10-16T14:15:45;100374.53;;;30.22;35.09
56713;BME280;42589;45.536;9.032;2022-10-16T14:18:50;100368.78;;;30.23;36.39
56713;BME280;42589;45.536;9.032;2022-10-16T14:21:55;100378.97;;;30.33;35.01
56713;BME280;42589;45.536;9.032;2022-10-16T14:24:56;100370.56;;;29.97;35.53
56713;BME280;42589;45.536;9.032;2022-10-16T14:28:04;100374.53;;;30.22;35.53
56713;BME280;42589;45.536;9.032;2022-10-16T14:34:25;100374.56;;;30.27;35.80
56713;BME280;42589;45.536;9.032;2022-10-16T14:37:27;100371.00;;;30.26;35.30
56713;BME280;42589;45.536;9.032;2022-10-16T14:40:33;100375.88;;;30.19;36.41
56713;BME280;42589;45.536;9.032;2022-10-16T14:43:36;100377.78;;;30.14;35.86
56713;BME280;42589;45.536;9.032;2022-10-16T14:46:38;100385.66;;;30.05;35.91
56713;BME280;42589;45.536;9.032;2022-10-16T14:49:40;100383.63;;;30.33;35.11
56713;BME280;42589;45.536;9.032;2022-10-16T14:52:41;100383.38;;;29.81;36.48
56713;BME280;42589;45.536;9.032;2022-10-16T14:55:43;100391.06;;;29.47;36.08
56713;BME280;42589;45.536;9.032;2022-10-16T14:58:44;100382.88;;;29.95;35.72
56713;BME280;42589;45.536;9.032;2022-10-16T15:01:45;100382.75;;;30.22;34.94
56713;BME280;42589;45.536;9.032;2022-10-16T15:04:46;100385.78;;;30.20;35.41
56713;BME280;42589;45.536;9.032;2022-10-16T15:07:47;100392.75;;;29.96;36.25
56713;BME280;42589;45.536;9.032;2022-10-16T15:10:50;100394.50;;;29.65;36.10
56713;BME280;42589;45.536;9.032;2022-10-16T15:13:51;100390.09;;;29.26;36.99
56713;BME280;42589;45.536;9.032;2022-10-16T15:16:52;100386.31;;;29.75;36.45
56713;BME280;42589;45.536;9.032;2022-10-16T15:19:53;100397.03;;;29.07;37.23
56713;BME280;42589;45.536;9.032;2022-10-16T15:22:53;100390.13;;;29.64;36.63
56713;BME280;42589;45.536;9.032;2022-10-16T15:25:54;100401.22;;;29.89;36.39
56713;BME280;42589;45.536;9.032;2022-10-16T15:28:55;100394.09;;;29.93;36.55
56713;BME280;42589;45.536;9.032;2022-10-16T15:31:56;100396.59;;;29.95;36.02
56713;BME280;42589;45.536;9.032;2022-10-16T15:34:56;100398.19;;;29.86;35.98
56713;BME280;42589;45.536;9.032;2022-10-16T15:37:58;100391.59;;;29.81;35.80
56713;BME280;42589;45.536;9.032;2022-10-16T15:40:58;100397.31;;;29.80;36.25
56713;BME280;42589;45.536;9.032;2022-10-16T15:43:59;100397.22;;;29.65;36.56
56713;BME280;42589;45.536;9.032;2022-10-16T15:46:59;100405.19;;;29.66;36.98
56713;BME280;42589;45.536;9.032;2022-10-16T15:50:01;100402.16;;;29.63;36.78
56713;BME280;42589;45.536;9.032;2022-10-16T15:53:02;100403.41;;;29.50;37.10
56713;BME280;42589;45.536;9.032;2022-10-16T15:56:03;100403.44;;;29.55;37.10
56713;BME280;42589;45.536;9.032;2022-10-16T15:59:04;100404.25;;;29.50;37.29
56713;BME280;42589;45.536;9.032;2022-10-16T16:02:05;100401.38;;;29.35;37.75
56713;BME280;42589;45.536;9.032;2022-10-16T16:05:06;100408.47;;;29.31;37.63
56713;BME280;42589;45.536;9.032;2022-10-16T16:08:11;100406.44;;;29.16;37.97
56713;BME280;42589;45.536;9.032;2022-10-16T16:11:13;100403.22;;;28.97;38.47
56713;BME280;42589;45.536;9.032;2022-10-16T16:14:14;100397.41;;;28.61;39.49
56713;BME280;42589;45.536;9.032;2022-10-16T16:17:15;100400.06;;;28.56;40.22
56713;BME280;42589;45.536;9.032;2022-10-16T16:20:15;100399.06;;;28.40;40.87
56713;BME280;42589;45.536;9.032;2022-10-16T16:23:16;100398.16;;;28.13;41.41
56713;BME280;42589;45.536;9.032;2022-10-16T16:26:26;100411.78;;;28.08;41.23
56713;BME280;42589;45.536;9.032;2022-10-16T16:29:27;100407.81;;;27.98;41.28
56713;BME280;42589;45.536;9.032;2022-10-16T16:32:28;100421.66;;;27.92;41.19
56713;BME280;42589;45.536;9.032;2022-10-16T16:35:29;100417.53;;;27.72;42.01
56713;BME280;42589;45.536;9.032;2022-10-16T16:38:31;100418.59;;;27.71;41.77
56713;BME280;42589;45.536;9.032;2022-10-16T16:41:32;100421.84;;;27.51;42.16
56713;BME280;42589;45.536;9.032;2022-10-16T16:44:33;100424.91;;;27.55;42.38
56713;BME280;42589;45.536;9.032;2022-10-16T16:47:36;100430.13;;;27.40;42.67
56713;BME280;42589;45.536;9.032;2022-10-16T16:50:36;100433.28;;;27.31;43.05
56713;BME280;42589;45.536;9.032;2022-10-16T16:53:37;100439.28;;;27.17;43.43
56713;BME280;42589;45.536;9.032;2022-10-16T16:56:38;100445.38;;;27.07;43.89
56713;BME280;42589;45.536;9.032;2022-10-16T16:59:39;100451.69;;;26.96;44.38
56713;BME280;42589;45.536;9.032;2022-10-16T17:02:39;100448.47;;;26.99;44.07
56713;BME280;42589;45.536;9.032;2022-10-16T17:05:43;100454.44;;;26.96;43.96
56713;BME280;42589;45.536;9.032;2022-10-16T17:08:44;100451.84;;;26.89;44.42
56713;BME280;42589;45.536;9.032;2022-10-16T17:11:45;100467.06;;;26.85;44.51
56713;BME280;42589;45.536;9.032;2022-10-16T17:14:46;100463.31;;;26.74;44.56
56713;BME280;42589;45.536;9.032;2022-10-16T17:17:46;100475.03;;;26.75;44.55
56713;BME280;42589;45.536;9.032;2022-10-16T17:20:47;100475.75;;;26.70;44.59
56713;BME280;42589;45.536;9.032;2022-10-16T17:23:50;100483.38;;;26.68;44.64
56713;BME280;42589;45.536;9.032;2022-10-16T17:26:51;100481.28;;;26.58;44.83
56713;BME280;42589;45.536;9.032;2022-10-16T17:29:52;100495.03;;;26.52;45.30
56713;BME280;42589;45.536;9.032;2022-10-16T17:32:52;100489.31;;;26.42;45.28
56713;BME280;42589;45.536;9.032;2022-10-16T17:35:53;100496.09;;;26.39;45.67
56713;BME280;42589;45.536;9.032;2022-10-16T17:38:54;100497.63;;;26.35;45.62
56713;BME280;42589;45.536;9.032;2022-10-16T17:41:55;100508.66;;;26.28;45.67
56713;BME280;42589;45.536;9.032;2022-10-16T17:44:55;100502.38;;;26.28;45.37
56713;BME280;42589;45.536;9.032;2022-10-16T17:47:59;100510.69;;;26.21;45.60
56713;BME280;42589;45.536;9.032;2022-10-16T17:51:02;100518.75;;;26.16;45.89
56713;BME280;42589;45.536;9.032;2022-10-16T17:54:03;100510.34;;;26.17;45.48
56713;BME280;42589;45.536;9.032;2022-10-16T17:57:04;100530.84;;;26.08;45.84
56713;BME280;42589;45.536;9.032;2022-10-16T18:00:05;100530.00;;;26.08;45.92
56713;BME280;42589;45.536;9.032;2022-10-16T18:03:06;100532.59;;;26.03;45.93
56713;BME280;42589;45.536;9.032;2022-10-16T18:06:06;100540.78;;;26.03;45.64
56713;BME280;42589;45.536;9.032;2022-10-16T18:09:08;100547.78;;;25.99;46.36